createdAt,value
2018-06-03T00:03:38.151Z,33.50
2018-06-03T00:08:41.260Z,42.67
2018-06-03T00:13:44.546Z,38.23
2018-06-03T00:18:50.115Z,42.90
2018-06-03T00:23:53.612Z,48.10
2018-06-03T00:28:56.867Z,43.20
2018-06-03T00:33:59.973Z,48.57
2018-06-03T00:39:04.394Z,45.33
2018-06-03T00:44:07.680Z,42.10
2018-06-03T00:49:10.810Z,40.07
2018-06-03T00:54:14.216Z,41.00
2018-06-03T00:59:17.606Z,39.63
2018-06-03T01:04:21.256Z,37.67
2018-06-03T01:09:25.591Z,34.20
2018-06-03T01:14:28.719Z,37.00
2018-06-03T01:19:32.456Z,31.60
2018-06-03T01:24:35.521Z,34.17
2018-06-03T01:29:38.660Z,33.53
2018-06-03T01:34:41.801Z,33.30
2018-06-03T01:39:44.971Z,34.80
2018-06-03T01:44:48.350Z,35.30
2018-06-03T01:49:51.557Z,35.47
2018-06-03T01:54:54.766Z,33.77
2018-06-03T01:59:58.550Z,35.27
2018-06-03T02:05:01.691Z,33.03
2018-06-03T02:10:04.905Z,36.53
2018-06-03T02:15:08.160Z,36.73
2018-06-03T02:20:11.219Z,39.17
2018-06-03T02:25:14.825Z,37.63
2018-06-03T02:30:18.076Z,38.20
2018-06-03T02:35:21.241Z,39.73
2018-06-03T02:40:24.542Z,41.00
2018-06-03T02:45:27.681Z,42.73
2018-06-03T02:50:30.807Z,43.83
2018-06-03T02:55:33.923Z,41.97
2018-06-03T03:00:38.147Z,43.60
2018-06-03T03:05:41.637Z,45.60
2018-06-03T03:10:44.874Z,51.17
2018-06-03T03:15:48.404Z,53.20
2018-06-03T03:20:51.530Z,54.37
2018-06-03T03:25:54.735Z,54.70
2018-06-03T03:30:58.024Z,51.40
2018-06-03T03:36:01.170Z,51.30
2018-06-03T03:41:04.274Z,54.37
2018-06-03T03:46:07.428Z,57.90
2018-06-03T03:51:10.499Z,64.93
2018-06-03T03:56:13.893Z,59.73
2018-06-03T04:01:17.148Z,60.63
2018-06-03T04:06:20.294Z,54.97
2018-06-03T04:11:23.607Z,51.90
2018-06-03T04:16:27.077Z,53.17
2018-06-03T04:21:30.273Z,56.77
2018-06-03T04:26:33.440Z,63.20
2018-06-03T04:31:36.498Z,57.07
2018-06-03T04:36:39.606Z,52.77
2018-06-03T04:41:42.757Z,57.03
2018-06-03T04:46:46.330Z,58.73
2018-06-03T04:51:49.689Z,62.93
2018-06-03T04:56:52.884Z,58.77
2018-06-03T05:01:56.206Z,60.13
2018-06-03T05:06:59.383Z,61.97
2018-06-03T05:12:02.624Z,65.13
2018-06-03T05:17:05.684Z,57.40
2018-06-03T05:22:08.937Z,53.73
2018-06-03T05:27:12.065Z,56.50
2018-06-03T05:32:15.686Z,49.50
2018-06-03T05:37:19.026Z,44.60
2018-06-03T05:42:22.394Z,44.63
2018-06-03T05:47:25.639Z,46.93
2018-06-03T05:52:28.711Z,35.47
2018-06-03T05:57:31.944Z,35.77
2018-06-03T06:02:35.006Z,40.20
2018-06-03T06:07:38.162Z,41.20
2018-06-03T06:12:41.288Z,32.27
2018-06-03T06:17:44.554Z,39.60
2018-06-03T06:22:47.931Z,34.97
2018-06-03T06:27:51.164Z,32.67
2018-06-03T06:32:54.305Z,32.20
2018-06-03T06:37:57.714Z,34.10
2018-06-03T06:43:00.980Z,33.83
2018-06-03T06:48:05.247Z,32.23
2018-06-03T06:53:08.584Z,31.27
2018-06-03T06:58:11.791Z,31.60
2018-06-03T07:03:15.007Z,27.17
2018-06-03T07:08:18.669Z,28.20
2018-06-03T07:13:21.972Z,29.77
2018-06-03T07:18:26.500Z,29.30
2018-06-03T07:23:29.596Z,27.67
2018-06-03T07:28:33.048Z,24.83
2018-06-03T07:33:36.130Z,23.17
2018-06-03T07:38:39.251Z,23.93
2018-06-03T07:43:42.452Z,22.37
2018-06-03T07:48:49.123Z,24.00
2018-06-03T07:53:52.462Z,20.80
2018-06-03T07:58:55.645Z,21.60
2018-06-03T08:03:58.781Z,20.43
2018-06-03T08:09:01.910Z,20.20
2018-06-03T08:14:05.022Z,21.43
2018-06-03T08:19:08.172Z,20.87
2018-06-03T08:24:11.296Z,22.13
2018-06-03T08:29:14.624Z,20.10
2018-06-03T08:34:17.945Z,23.77
2018-06-03T08:39:22.236Z,20.10
2018-06-03T08:44:25.465Z,20.57
2018-06-03T08:49:28.592Z,22.20
2018-06-03T08:54:31.724Z,22.97
2018-06-03T08:59:34.782Z,19.13
2018-06-03T09:04:38.092Z,21.23
2018-06-03T09:09:41.381Z,23.53
2018-06-03T09:14:44.877Z,27.73
2018-06-03T09:19:48.113Z,26.70
2018-06-03T09:24:51.302Z,25.63
2018-06-03T09:29:54.533Z,35.17
2018-06-03T09:34:57.679Z,33.57
2018-06-03T09:40:00.723Z,34.17
2018-06-03T09:45:03.910Z,31.47
2018-06-03T09:50:07.214Z,31.60
2018-06-03T09:55:10.263Z,29.03
2018-06-03T10:00:13.526Z,29.03
2018-06-03T10:05:17.171Z,30.87
2018-06-03T10:10:20.739Z,32.30
2018-06-03T10:15:24.047Z,28.77
2018-06-03T10:20:27.171Z,27.20
2018-06-03T10:25:30.604Z,27.20
2018-06-03T10:30:33.739Z,30.40
2018-06-03T10:35:36.845Z,27.17
2018-06-03T10:40:39.896Z,22.83
2018-06-03T10:45:43.189Z,21.80
2018-06-03T10:50:46.812Z,19.40
2018-06-03T10:55:50.396Z,18.43
2018-06-03T11:00:53.780Z,16.67
2018-06-03T11:05:58.871Z,17.17
2018-06-03T11:11:02.112Z,14.10
2018-06-03T11:16:05.314Z,10.87
2018-06-03T11:21:09.045Z,11.17
2018-06-03T11:26:12.189Z,11.23
2018-06-03T11:31:15.942Z,12.00
2018-06-03T11:36:19.311Z,11.47
2018-06-03T11:41:22.711Z,11.37
2018-06-03T11:46:25.813Z,12.73
2018-06-03T11:51:28.999Z,12.30
2018-06-03T11:56:43.305Z,12.87
2018-06-03T12:01:46.641Z,11.23
2018-06-03T12:06:49.866Z,10.43
2018-06-03T12:11:53.115Z,10.20
2018-06-03T12:16:56.296Z,12.00
2018-06-03T12:21:59.528Z,11.03
2018-06-03T12:27:02.726Z,11.50
2018-06-03T12:32:06.023Z,11.93
2018-06-03T12:37:09.104Z,12.67
2018-06-03T12:42:12.263Z,10.37
2018-06-03T12:47:16.228Z,9.27
2018-06-03T12:52:19.570Z,10.80
2018-06-03T12:57:22.770Z,11.97
2018-06-03T13:02:25.923Z,11.20
2018-06-03T13:07:29.052Z,12.13
2018-06-03T13:12:32.295Z,11.73
2018-06-03T13:17:35.523Z,9.43
2018-06-03T13:22:38.678Z,11.07
2018-06-03T13:27:42.754Z,12.10
2018-06-03T13:32:46.040Z,12.07
2018-06-03T13:37:49.409Z,10.70
2018-06-03T13:42:52.635Z,12.83
2018-06-03T13:47:55.784Z,10.50
2018-06-03T13:52:59.018Z,11.47
2018-06-03T13:58:02.186Z,9.47
2018-06-03T14:03:05.317Z,11.37
2018-06-03T14:08:08.543Z,10.23
2018-06-03T14:13:11.663Z,11.37
2018-06-03T14:18:14.899Z,11.83
2018-06-03T14:23:18.255Z,11.87
2018-06-03T14:28:21.418Z,11.77
2018-06-03T14:33:24.639Z,11.87
2018-06-03T14:38:28.505Z,11.43
2018-06-03T14:43:31.655Z,11.93
2018-06-03T14:48:34.783Z,9.87
2018-06-03T14:53:37.935Z,10.47
2018-06-03T14:58:41.002Z,10.77
2018-06-03T15:03:45.085Z,10.90
2018-06-03T15:08:48.415Z,11.27
2018-06-03T15:13:51.740Z,10.47
2018-06-03T15:18:55.072Z,11.77
2018-06-03T15:23:58.218Z,11.97
2018-06-03T15:29:01.372Z,11.27
2018-06-03T15:34:04.550Z,11.67
2018-06-03T15:39:08.225Z,11.63
2018-06-03T15:44:11.412Z,12.40
2018-06-03T15:49:15.460Z,12.90
2018-06-03T15:54:19.144Z,12.43
2018-06-03T15:59:22.572Z,13.33
2018-06-03T16:04:25.992Z,14.57
2018-06-03T16:09:30.818Z,13.97
2018-06-03T16:14:34.177Z,14.70
2018-06-03T16:19:37.278Z,14.77
2018-06-03T16:24:40.443Z,13.90
2018-06-03T16:29:43.724Z,14.80
2018-06-03T16:34:47.063Z,13.80
2018-06-03T16:39:50.403Z,14.57
2018-06-03T16:44:53.585Z,15.63
2018-06-03T16:49:56.850Z,16.50
2018-06-03T16:55:00.015Z,15.43
2018-06-03T17:00:03.257Z,16.93
2018-06-03T17:05:06.654Z,14.43
2018-06-03T17:10:09.856Z,15.77
2018-06-03T17:15:12.943Z,15.27
2018-06-03T17:20:16.229Z,16.40
2018-06-03T17:25:19.748Z,17.43
2018-06-03T17:30:25.760Z,16.13
2018-06-03T17:35:32.805Z,16.80
2018-06-03T17:40:36.152Z,15.97
2018-06-03T17:45:40.020Z,16.50
2018-06-03T17:50:43.969Z,16.33
2018-06-03T17:55:48.194Z,16.67
2018-06-03T18:00:51.500Z,16.57
2018-06-03T18:05:54.770Z,14.13
2018-06-03T18:10:58.653Z,16.10
2018-06-03T18:16:02.280Z,14.30
2018-06-03T18:21:07.909Z,14.47
2018-06-03T18:26:11.629Z,14.07
2018-06-03T18:31:18.244Z,14.77
2018-06-03T18:36:21.479Z,13.77
2018-06-03T18:41:26.449Z,15.93
2018-06-03T18:46:31.341Z,15.40
2018-06-03T18:51:37.184Z,15.37
2018-06-03T18:56:40.862Z,14.33
2018-06-03T19:01:48.841Z,17.70
2018-06-03T19:06:52.571Z,15.20
2018-06-03T19:11:56.047Z,16.73
2018-06-03T19:16:59.175Z,15.27
2018-06-03T19:22:02.352Z,15.60
2018-06-03T19:27:05.944Z,15.10
2018-06-03T19:32:10.042Z,15.80
2018-06-03T19:37:13.345Z,18.03
2018-06-03T19:42:16.730Z,17.10
2018-06-03T19:47:20.756Z,18.13
2018-06-03T19:52:27.069Z,17.90
2018-06-03T19:57:31.469Z,18.87
2018-06-03T20:02:34.704Z,17.33
2018-06-03T20:07:37.818Z,16.83
2018-06-03T20:12:45.834Z,19.63
2018-06-03T20:17:50.245Z,19.67
2018-06-03T20:22:54.270Z,20.93
2018-06-03T20:27:59.241Z,20.77
2018-06-03T20:33:02.523Z,22.50
2018-06-03T20:38:05.620Z,23.13
2018-06-03T20:43:09.819Z,23.13
2018-06-03T20:48:13.123Z,22.97
2018-06-03T20:53:16.575Z,21.57
2018-06-03T20:58:35.601Z,23.67
2018-06-03T21:03:44.174Z,21.87
2018-06-03T21:08:55.061Z,23.10
2018-06-03T21:14:03.602Z,25.20
2018-06-03T21:19:08.586Z,26.50
2018-06-03T21:24:11.781Z,24.33
2018-06-03T21:29:16.152Z,23.33
2018-06-03T21:34:19.413Z,24.70
2018-06-03T21:39:22.620Z,25.70
2018-06-03T21:44:25.760Z,25.17
2018-06-03T21:49:28.855Z,25.60
2018-06-03T21:54:31.950Z,26.80
2018-06-03T21:59:35.064Z,27.73
2018-06-03T22:04:38.198Z,25.10
2018-06-03T22:09:44.670Z,27.47
2018-06-03T22:14:49.452Z,26.27
2018-06-03T22:19:52.858Z,26.73
2018-06-03T22:24:55.954Z,27.60
2018-06-03T22:29:59.067Z,29.10
2018-06-03T22:35:02.299Z,29.00
2018-06-03T22:40:05.422Z,26.67
2018-06-03T22:45:08.772Z,30.20
2018-06-03T22:50:11.901Z,25.53
2018-06-03T22:55:15.198Z,29.30
2018-06-03T23:00:19.417Z,26.60
2018-06-03T23:05:23.296Z,27.00
2018-06-03T23:10:26.417Z,30.47
2018-06-03T23:15:29.537Z,27.13
2018-06-03T23:20:32.637Z,27.10
2018-06-03T23:25:35.738Z,25.93
2018-06-03T23:30:39.711Z,25.77
2018-06-03T23:35:43.614Z,26.03
2018-06-03T23:40:47.317Z,27.07
2018-06-03T23:45:50.849Z,30.13
2018-06-03T23:50:54.092Z,31.43
2018-06-03T23:55:57.231Z,27.60
